createdAt,value
2022-10-19T00:02:08.453Z,5.18
2022-10-19T00:04:34.877Z,4.93
2022-10-19T00:07:01.228Z,5.75
2022-10-19T00:09:27.730Z,4.53
2022-10-19T00:11:54.092Z,4.50
2022-10-19T00:14:23.432Z,4.50
2022-10-19T00:16:55.564Z,4.68
2022-10-19T00:19:25.198Z,4.60
2022-10-19T00:21:51.969Z,4.63
2022-10-19T00:24:18.674Z,3.97
2022-10-19T00:26:45.096Z,4.70
2022-10-19T00:29:12.983Z,4.30
2022-10-19T00:31:39.796Z,4.82
2022-10-19T00:34:06.188Z,5.15
2022-10-19T00:36:35.621Z,4.15
2022-10-19T00:39:04.220Z,4.68
2022-10-19T00:41:32.735Z,5.25
2022-10-19T00:44:01.947Z,7.72
2022-10-19T00:46:31.045Z,5.53
2022-10-19T00:49:01.415Z,3.75
2022-10-19T00:51:29.366Z,4.38
2022-10-19T00:53:56.599Z,3.38
2022-10-19T00:56:23.215Z,3.00
2022-10-19T00:58:49.768Z,3.03
2022-10-19T01:01:17.855Z,3.20
2022-10-19T01:03:44.985Z,3.17
2022-10-19T01:06:13.959Z,3.72
2022-10-19T01:08:40.315Z,5.13
2022-10-19T01:11:14.169Z,4.50
2022-10-19T01:13:48.251Z,5.28
2022-10-19T01:16:31.635Z,5.60
2022-10-19T01:19:10.313Z,4.70
2022-10-19T01:21:50.912Z,5.45
2022-10-19T01:24:28.810Z,6.05
2022-10-19T01:27:02.928Z,11.20
2022-10-19T01:29:59.752Z,13.70
2022-10-19T01:32:57.969Z,10.63
2022-10-19T01:35:41.609Z,6.90
2022-10-19T01:38:36.008Z,3.15
2022-10-19T01:41:14.352Z,3.53
2022-10-19T01:43:48.760Z,3.10
2022-10-19T01:46:19.421Z,3.55
2022-10-19T01:48:52.543Z,2.95
2022-10-19T01:51:23.223Z,3.20
2022-10-19T01:53:53.005Z,3.08
2022-10-19T01:56:22.084Z,3.17
2022-10-19T01:58:49.476Z,3.10
2022-10-19T02:01:18.463Z,5.97
2022-10-19T02:03:45.110Z,4.72
2022-10-19T02:06:12.668Z,4.65
2022-10-19T02:08:47.210Z,4.85
2022-10-19T02:11:14.340Z,5.80
2022-10-19T02:13:41.498Z,4.57
2022-10-19T02:16:12.815Z,4.55
2022-10-19T02:18:42.562Z,5.33
2022-10-19T02:21:09.466Z,4.00
2022-10-19T02:23:36.243Z,4.72
2022-10-19T02:26:02.878Z,5.07
2022-10-19T02:28:29.869Z,4.47
2022-10-19T02:30:56.393Z,6.45
2022-10-19T02:33:23.041Z,6.50
2022-10-19T02:35:49.604Z,5.68
2022-10-19T02:38:19.920Z,5.50
2022-10-19T02:40:54.124Z,4.03
2022-10-19T02:43:23.103Z,4.15
2022-10-19T02:45:59.064Z,4.03
2022-10-19T02:48:27.921Z,5.88
2022-10-19T02:50:54.273Z,5.43
2022-10-19T02:53:20.654Z,6.00
2022-10-19T02:55:48.531Z,11.52
2022-10-19T02:58:15.100Z,8.20
2022-10-19T03:00:41.667Z,7.57
2022-10-19T03:03:08.049Z,7.30
2022-10-19T03:05:34.412Z,6.75
2022-10-19T03:08:00.777Z,6.05
2022-10-19T03:10:27.120Z,5.70
2022-10-19T03:12:53.516Z,5.05
2022-10-19T03:15:20.058Z,4.18
2022-10-19T03:17:46.474Z,4.45
2022-10-19T03:20:12.834Z,3.90
2022-10-19T03:22:39.192Z,5.75
2022-10-19T03:25:06.007Z,5.05
2022-10-19T03:27:32.714Z,6.22
2022-10-19T03:29:59.199Z,6.25
2022-10-19T03:32:25.555Z,5.93
2022-10-19T03:34:51.898Z,8.43
2022-10-19T03:37:18.268Z,6.65
2022-10-19T03:39:44.618Z,6.32
2022-10-19T03:42:11.000Z,7.03
2022-10-19T03:44:37.379Z,7.63
2022-10-19T03:47:03.742Z,6.68
2022-10-19T03:49:30.102Z,6.40
2022-10-19T03:51:56.479Z,6.88
2022-10-19T03:54:25.088Z,7.57
2022-10-19T03:56:53.776Z,6.60
2022-10-19T03:59:20.203Z,7.68
2022-10-19T04:01:46.591Z,6.80
2022-10-19T04:04:15.937Z,9.68
2022-10-19T04:06:43.936Z,10.18
2022-10-19T04:09:13.405Z,11.60
2022-10-19T04:11:39.816Z,13.05
2022-10-19T04:14:06.419Z,9.82
2022-10-19T04:16:33.232Z,9.40
2022-10-19T04:19:00.277Z,8.32
2022-10-19T04:21:37.731Z,8.43
2022-10-19T04:24:06.804Z,8.80
2022-10-19T04:26:34.316Z,8.55
2022-10-19T04:29:01.557Z,6.90
2022-10-19T04:31:28.635Z,5.53
2022-10-19T04:33:55.642Z,5.22
2022-10-19T04:36:22.835Z,6.35
2022-10-19T04:38:49.224Z,5.78
2022-10-19T04:41:18.129Z,6.35
2022-10-19T04:43:47.839Z,6.80
2022-10-19T04:46:18.956Z,6.18
2022-10-19T04:48:46.558Z,7.10
2022-10-19T04:51:13.259Z,6.45
2022-10-19T04:53:40.661Z,8.02
2022-10-19T04:56:08.960Z,9.32
2022-10-19T04:58:35.651Z,9.25
2022-10-19T05:01:13.785Z,9.82
2022-10-19T05:03:40.435Z,10.65
2022-10-19T05:06:07.502Z,10.85
2022-10-19T05:08:34.208Z,10.95
2022-10-19T05:11:06.400Z,10.13
2022-10-19T05:13:32.984Z,9.48
2022-10-19T05:16:01.061Z,10.23
2022-10-19T05:18:27.888Z,10.65
2022-10-19T05:21:01.890Z,12.63
2022-10-19T05:23:29.168Z,13.57
2022-10-19T05:26:17.181Z,12.68
2022-10-19T05:28:48.063Z,13.20
2022-10-19T05:31:19.666Z,10.85
2022-10-19T05:33:46.375Z,11.93
2022-10-19T05:36:15.266Z,13.23
2022-10-19T05:38:42.503Z,12.93
2022-10-19T05:41:08.970Z,12.60
2022-10-19T05:43:35.484Z,11.95
2022-10-19T05:46:10.567Z,13.07
2022-10-19T05:48:37.931Z,12.77
2022-10-19T05:51:05.769Z,11.35
2022-10-19T05:53:33.063Z,12.85
2022-10-19T05:55:59.468Z,13.23
2022-10-19T05:58:25.902Z,12.98
2022-10-19T06:00:56.756Z,12.80
2022-10-19T06:03:24.111Z,13.02
2022-10-19T06:05:50.622Z,13.30
2022-10-19T06:08:17.907Z,12.70
2022-10-19T06:10:45.018Z,11.70
2022-10-19T06:13:11.745Z,12.80
2022-10-19T06:15:40.041Z,13.20
2022-10-19T06:18:07.849Z,12.55
2022-10-19T06:20:40.586Z,13.88
2022-10-19T06:23:07.551Z,12.60
2022-10-19T06:25:35.159Z,13.38
2022-10-19T06:28:01.980Z,13.45
2022-10-19T06:30:28.641Z,13.82
2022-10-19T06:32:55.271Z,13.30
2022-10-19T06:35:21.686Z,13.10
2022-10-19T06:37:48.038Z,12.60
2022-10-19T06:40:14.501Z,13.00
2022-10-19T06:42:40.993Z,13.55
2022-10-19T06:45:08.872Z,13.30
2022-10-19T06:47:36.351Z,13.88
2022-10-19T06:50:05.288Z,13.73
2022-10-19T06:52:32.984Z,13.52
2022-10-19T06:54:59.715Z,15.18
2022-10-19T06:57:26.132Z,14.50
2022-10-19T06:59:53.051Z,15.07
2022-10-19T07:02:20.305Z,14.65
2022-10-19T07:04:46.692Z,15.15
2022-10-19T07:07:13.104Z,14.93
2022-10-19T07:09:39.472Z,14.30
2022-10-19T07:12:05.954Z,14.00
2022-10-19T07:14:38.683Z,13.38
2022-10-19T07:17:10.985Z,13.05
2022-10-19T07:19:37.752Z,12.98
2022-10-19T07:22:04.348Z,13.45
2022-10-19T07:24:30.735Z,14.05
2022-10-19T07:26:57.166Z,13.40
2022-10-19T07:29:23.526Z,12.65
2022-10-19T07:31:50.007Z,14.40
2022-10-19T07:34:16.564Z,12.88
2022-10-19T07:36:45.266Z,12.77
2022-10-19T07:39:12.455Z,11.90
2022-10-19T07:41:39.387Z,13.77
2022-10-19T07:44:06.008Z,12.35
2022-10-19T07:46:39.050Z,12.27
2022-10-19T07:49:09.711Z,12.25
2022-10-19T07:51:37.296Z,13.55
2022-10-19T07:54:04.117Z,13.27
2022-10-19T07:56:30.938Z,14.82
2022-10-19T07:58:58.541Z,13.98
2022-10-19T08:01:30.168Z,13.98
2022-10-19T08:04:43.191Z,13.50
2022-10-19T08:06:44.069Z,12.70
2022-10-19T08:09:15.689Z,12.80
2022-10-19T08:11:49.314Z,13.20
2022-10-19T08:14:15.687Z,14.00
2022-10-19T08:16:44.204Z,14.15
2022-10-19T08:19:12.719Z,13.55
2022-10-19T08:21:40.588Z,14.32
2022-10-19T08:24:07.424Z,14.15
2022-10-19T08:26:40.025Z,13.95
2022-10-19T08:29:14.888Z,15.07
2022-10-19T08:31:42.488Z,15.18
2022-10-19T08:34:09.252Z,15.10
2022-10-19T08:36:36.936Z,15.35
2022-10-19T08:39:07.844Z,15.32
2022-10-19T08:41:40.254Z,16.13
2022-10-19T08:44:10.248Z,15.77
2022-10-19T08:47:00.441Z,17.77
2022-10-19T08:49:30.687Z,18.95
2022-10-19T08:52:04.499Z,18.83
2022-10-19T08:54:38.160Z,20.15
2022-10-19T08:57:15.561Z,15.95
2022-10-19T08:59:50.747Z,18.92
2022-10-19T09:02:45.048Z,20.40
2022-10-19T09:05:26.583Z,16.77
2022-10-19T09:07:53.800Z,21.97
2022-10-19T09:10:25.594Z,18.10
2022-10-19T09:13:01.402Z,16.33
2022-10-19T09:15:47.606Z,15.52
2022-10-19T09:18:20.110Z,14.88
2022-10-19T09:20:49.444Z,14.60
2022-10-19T09:23:22.088Z,15.02
2022-10-19T09:25:50.268Z,17.38
2022-10-19T09:28:46.453Z,13.65
2022-10-19T09:31:21.983Z,12.98
2022-10-19T09:33:53.180Z,11.15
2022-10-19T09:36:27.570Z,11.43
2022-10-19T09:38:59.538Z,10.93
2022-10-19T09:41:25.961Z,10.18
2022-10-19T09:43:54.365Z,9.30
2022-10-19T09:46:32.700Z,8.77
2022-10-19T09:49:01.326Z,8.63
2022-10-19T09:51:39.237Z,8.60
2022-10-19T09:54:05.674Z,7.45
2022-10-19T09:56:38.012Z,7.20
2022-10-19T09:59:04.556Z,6.25
2022-10-19T10:01:43.043Z,6.18
2022-10-19T10:04:15.749Z,3.70
2022-10-19T10:09:15.941Z,3.30
2022-10-19T10:11:43.823Z,4.25
2022-10-19T10:14:39.850Z,4.57
2022-10-19T10:17:22.376Z,4.40
2022-10-19T10:19:58.026Z,3.25
2022-10-19T10:22:30.596Z,2.88
2022-10-19T10:24:57.543Z,2.67
2022-10-19T10:27:33.442Z,1.95
2022-10-19T10:30:06.150Z,2.42
2022-10-19T10:32:37.384Z,1.95
2022-10-19T10:35:16.566Z,2.53
2022-10-19T10:37:46.969Z,2.78
2022-10-19T10:40:30.804Z,2.50
2022-10-19T10:43:02.826Z,3.45
2022-10-19T10:45:34.869Z,2.72
2022-10-19T10:48:17.582Z,2.50
2022-10-19T10:50:44.271Z,2.83
2022-10-19T10:53:33.185Z,2.20
2022-10-19T10:55:59.608Z,2.05
2022-10-19T10:58:40.901Z,3.15
2022-10-19T11:01:16.237Z,2.22
2022-10-19T11:03:48.279Z,1.95
2022-10-19T11:06:14.912Z,2.00
2022-10-19T11:08:47.810Z,1.80
2022-10-19T11:11:20.835Z,1.90
2022-10-19T11:13:50.097Z,1.48
2022-10-19T11:16:18.769Z,1.98
2022-10-19T11:18:52.430Z,1.38
2022-10-19T11:21:31.882Z,1.38
2022-10-19T11:24:33.888Z,2.15
2022-10-19T11:27:38.233Z,1.90
2022-10-19T11:30:17.192Z,1.73
2022-10-19T11:32:52.779Z,1.75
2022-10-19T11:35:52.790Z,2.45
2022-10-19T11:38:38.975Z,1.90
2022-10-19T11:41:26.380Z,2.40
2022-10-19T11:44:23.360Z,2.60
2022-10-19T11:47:14.785Z,2.30
2022-10-19T11:49:44.792Z,2.20
2022-10-19T11:52:37.214Z,2.13
2022-10-19T11:57:43.232Z,3.40
2022-10-19T12:00:37.584Z,2.40
2022-10-19T12:03:14.515Z,2.90
2022-10-19T12:05:59.251Z,2.58
2022-10-19T12:08:56.636Z,3.10
2022-10-19T12:11:44.816Z,2.83
2022-10-19T12:14:21.812Z,2.92
2022-10-19T12:16:51.025Z,2.80
2022-10-19T12:19:35.953Z,2.78
2022-10-19T12:22:04.181Z,2.78
2022-10-19T12:24:32.716Z,2.50
2022-10-19T12:26:59.708Z,3.00
2022-10-19T12:29:37.787Z,3.20
2022-10-19T12:32:04.955Z,3.17
2022-10-19T12:35:17.726Z,4.10
2022-10-19T12:37:56.549Z,3.20
2022-10-19T12:40:36.160Z,3.00
2022-10-19T12:43:19.869Z,2.60
2022-10-19T12:46:05.814Z,3.20
2022-10-19T12:48:32.178Z,2.88
2022-10-19T12:51:00.796Z,2.85
2022-10-19T12:53:31.367Z,2.72
2022-10-19T12:56:24.631Z,2.05
2022-10-19T12:59:01.115Z,2.03
2022-10-19T13:01:43.810Z,2.60
2022-10-19T13:04:19.775Z,3.30
2022-10-19T13:06:51.528Z,2.33
2022-10-19T13:09:31.854Z,2.13
2022-10-19T13:12:21.796Z,2.00
2022-10-19T13:14:52.599Z,2.05
2022-10-19T13:17:46.388Z,2.10
2022-10-19T13:20:16.005Z,2.42
2022-10-19T13:22:47.260Z,2.80
2022-10-19T13:25:19.727Z,1.77
2022-10-19T13:27:47.593Z,1.70
2022-10-19T13:30:36.072Z,1.70
2022-10-19T13:33:31.366Z,1.70
2022-10-19T13:36:00.830Z,1.42
2022-10-19T13:41:25.049Z,1.70
2022-10-19T13:44:10.172Z,1.75
2022-10-19T13:46:45.660Z,1.58
2022-10-19T13:49:34.205Z,1.30
2022-10-19T13:52:11.777Z,1.13
2022-10-19T13:54:46.953Z,1.27
2022-10-19T13:57:37.418Z,0.90
2022-10-19T14:00:14.333Z,1.00
2022-10-19T14:02:59.560Z,1.27
2022-10-19T14:05:53.910Z,1.33
2022-10-19T14:08:38.468Z,1.15
2022-10-19T14:11:12.105Z,1.17
2022-10-19T14:13:38.447Z,1.08
2022-10-19T14:16:05.130Z,1.30
2022-10-19T14:18:33.792Z,1.40
2022-10-19T14:21:07.324Z,0.88
2022-10-19T14:23:36.157Z,1.52
2022-10-19T14:26:04.797Z,0.90
2022-10-19T14:28:31.793Z,1.02
2022-10-19T14:31:05.974Z,1.00
2022-10-19T14:33:40.010Z,1.35
2022-10-19T14:36:21.106Z,1.00
2022-10-19T14:38:49.675Z,0.90
2022-10-19T14:41:30.117Z,0.98
2022-10-19T14:43:56.948Z,0.93
2022-10-19T14:46:29.913Z,1.50
2022-10-19T14:49:01.099Z,0.95
2022-10-19T14:51:40.400Z,1.20
2022-10-19T14:54:11.198Z,1.58
2022-10-19T14:57:00.913Z,2.35
2022-10-19T14:59:30.892Z,1.45
2022-10-19T15:02:00.024Z,1.70
2022-10-19T15:04:32.731Z,1.27
2022-10-19T15:07:01.384Z,1.60
2022-10-19T15:09:37.398Z,1.60
2022-10-19T15:12:15.667Z,1.25
2022-10-19T15:14:42.221Z,1.63
2022-10-19T15:17:28.115Z,1.30
2022-10-19T15:19:56.090Z,1.92
2022-10-19T15:22:39.193Z,1.50
2022-10-19T15:25:08.621Z,1.20
2022-10-19T15:27:37.042Z,1.30
2022-10-19T15:30:17.948Z,1.40
2022-10-19T15:32:46.177Z,1.30
2022-10-19T15:35:18.546Z,3.42
2022-10-19T15:37:45.613Z,3.25
2022-10-19T15:40:17.907Z,1.70
2022-10-19T15:42:44.353Z,1.73
2022-10-19T15:45:39.509Z,1.85
2022-10-19T15:48:24.541Z,1.88
2022-10-19T15:50:51.890Z,2.10
2022-10-19T15:53:19.360Z,2.10
2022-10-19T15:55:46.031Z,2.13
2022-10-19T15:58:13.313Z,2.88
2022-10-19T16:00:40.802Z,3.95
2022-10-19T16:03:07.438Z,3.38
2022-10-19T16:05:35.508Z,2.83
2022-10-19T16:08:02.100Z,2.92
2022-10-19T16:10:28.493Z,2.50
2022-10-19T16:12:54.938Z,2.45
2022-10-19T16:15:22.882Z,2.70
2022-10-19T16:17:54.224Z,2.72
2022-10-19T16:20:21.265Z,3.30
2022-10-19T16:22:48.102Z,3.10
2022-10-19T16:25:15.213Z,3.13
2022-10-19T16:27:41.726Z,3.00
2022-10-19T16:30:08.673Z,3.28
2022-10-19T16:32:35.064Z,3.03
2022-10-19T16:35:01.434Z,2.60
2022-10-19T16:37:27.968Z,2.50
2022-10-19T16:39:54.320Z,2.67
2022-10-19T16:42:21.278Z,2.70
2022-10-19T16:44:47.634Z,2.53
2022-10-19T16:47:14.758Z,3.30
2022-10-19T16:49:41.113Z,3.03
2022-10-19T16:52:07.484Z,3.15
2022-10-19T16:54:33.873Z,3.25
2022-10-19T16:57:00.238Z,3.38
2022-10-19T16:59:26.705Z,3.42
2022-10-19T17:01:53.866Z,2.67
2022-10-19T17:04:20.516Z,3.13
2022-10-19T17:06:46.933Z,3.30
2022-10-19T17:11:59.681Z,2.95
2022-10-19T17:14:26.064Z,2.45
2022-10-19T17:16:52.468Z,2.75
2022-10-19T17:19:18.835Z,3.10
2022-10-19T17:21:45.208Z,3.65
2022-10-19T17:24:21.043Z,2.80
2022-10-19T17:26:49.695Z,2.95
2022-10-19T17:29:16.101Z,2.42
2022-10-19T17:31:43.085Z,3.25
2022-10-19T17:34:09.968Z,3.17
2022-10-19T17:39:09.026Z,3.08
2022-10-19T17:41:35.552Z,3.20
2022-10-19T17:44:03.603Z,2.90
2022-10-19T17:46:32.838Z,3.38
2022-10-19T17:48:59.741Z,3.22
2022-10-19T17:51:29.097Z,2.83
2022-10-19T17:53:58.052Z,3.30
2022-10-19T17:56:24.924Z,3.25
2022-10-19T17:58:51.484Z,3.58
2022-10-19T18:01:19.819Z,2.67
2022-10-19T18:03:46.497Z,2.92
2022-10-19T18:06:25.980Z,3.60
2022-10-19T18:08:54.434Z,4.05
2022-10-19T18:11:26.615Z,3.10
2022-10-19T18:13:56.230Z,5.50
2022-10-19T18:16:27.745Z,3.60
2022-10-19T18:18:56.301Z,3.72
2022-10-19T18:21:25.705Z,3.50
2022-10-19T18:23:53.478Z,3.65
2022-10-19T18:26:23.084Z,3.50
2022-10-19T18:28:50.468Z,3.85
2022-10-19T18:31:21.861Z,3.78
2022-10-19T18:33:50.618Z,3.80
2022-10-19T18:36:16.971Z,3.63
2022-10-19T18:38:43.350Z,4.00
2022-10-19T18:43:39.301Z,4.95
2022-10-19T18:46:06.169Z,4.30
2022-10-19T18:48:32.616Z,4.10
2022-10-19T18:51:02.960Z,4.10
2022-10-19T18:53:30.018Z,4.45
2022-10-19T18:56:00.485Z,4.60
2022-10-19T18:58:27.060Z,4.72
2022-10-19T19:01:08.439Z,4.43
2022-10-19T19:03:35.496Z,4.80
2022-10-19T19:06:07.348Z,4.80
2022-10-19T19:08:34.111Z,6.68
2022-10-19T19:11:18.422Z,4.97
2022-10-19T19:13:49.756Z,4.55
2022-10-19T19:16:16.263Z,4.93
2022-10-19T19:18:42.832Z,4.88
2022-10-19T19:21:17.430Z,5.13
2022-10-19T19:23:44.484Z,4.80
2022-10-19T19:26:12.733Z,5.07
2022-10-19T19:28:41.554Z,5.80
2022-10-19T19:31:10.101Z,6.07
2022-10-19T19:33:36.539Z,6.03
2022-10-19T19:36:07.459Z,5.53
2022-10-19T19:38:34.417Z,5.30
2022-10-19T19:41:03.849Z,5.70
2022-10-19T19:43:31.735Z,5.38
2022-10-19T19:46:03.119Z,5.50
2022-10-19T19:48:32.669Z,5.20
2022-10-19T19:50:59.083Z,5.75
2022-10-19T19:53:25.444Z,5.50
2022-10-19T19:55:51.812Z,6.47
2022-10-19T19:58:18.845Z,5.88
2022-10-19T20:00:46.462Z,5.32
2022-10-19T20:03:13.503Z,5.63
2022-10-19T20:05:40.805Z,6.63
2022-10-19T20:08:07.938Z,6.38
2022-10-19T20:10:38.348Z,6.13
2022-10-19T20:15:38.953Z,5.90
2022-10-19T20:18:06.281Z,6.75
2022-10-19T20:20:32.710Z,5.93
2022-10-19T20:22:59.071Z,6.13
2022-10-19T20:25:25.414Z,6.45
2022-10-19T20:27:51.779Z,7.30
2022-10-19T20:30:18.283Z,6.78
2022-10-19T20:32:44.663Z,7.15
2022-10-19T20:35:11.092Z,7.60
2022-10-19T20:37:37.468Z,7.10
2022-10-19T20:40:08.498Z,7.22
2022-10-19T20:42:35.632Z,7.47
2022-10-19T20:45:02.247Z,8.45
2022-10-19T20:47:28.599Z,8.00
2022-10-19T20:49:55.018Z,7.43
2022-10-19T20:52:21.441Z,7.05
2022-10-19T20:54:48.483Z,7.72
2022-10-19T20:57:14.843Z,7.68
2022-10-19T20:59:41.194Z,7.90
2022-10-19T21:02:09.675Z,8.52
2022-10-19T21:04:36.089Z,7.55
2022-10-19T21:07:04.321Z,8.40
2022-10-19T21:09:30.724Z,8.35
2022-10-19T21:11:57.179Z,8.40
2022-10-19T21:14:28.019Z,7.80
2022-10-19T21:16:57.041Z,8.48
2022-10-19T21:19:25.421Z,9.32
2022-10-19T21:21:57.800Z,8.40
2022-10-19T21:26:54.778Z,9.40
2022-10-19T21:29:21.298Z,9.07
2022-10-19T21:31:49.643Z,8.65
2022-10-19T21:34:18.382Z,9.18
2022-10-19T21:36:45.039Z,8.88
2022-10-19T21:39:12.751Z,11.00
2022-10-19T21:41:39.130Z,8.93
2022-10-19T21:44:05.559Z,9.05
2022-10-19T21:46:31.973Z,9.13
2022-10-19T21:48:58.365Z,9.43
2022-10-19T21:51:44.316Z,9.60
2022-10-19T21:54:15.418Z,8.68
2022-10-19T21:56:41.957Z,8.98
2022-10-19T21:59:08.443Z,9.23
2022-10-19T22:01:38.663Z,8.45
2022-10-19T22:04:10.525Z,8.63
2022-10-19T22:06:36.903Z,9.45
2022-10-19T22:09:06.206Z,8.80
2022-10-19T22:11:32.809Z,9.55
2022-10-19T22:14:00.979Z,8.05
2022-10-19T22:16:28.072Z,9.52
2022-10-19T22:18:55.438Z,9.40
2022-10-19T22:21:29.303Z,8.90
2022-10-19T22:24:05.200Z,8.93
2022-10-19T22:26:34.481Z,9.18
2022-10-19T22:29:01.739Z,8.98
2022-10-19T22:31:29.502Z,8.95
2022-10-19T22:33:56.151Z,8.93
2022-10-19T22:36:22.538Z,9.27
2022-10-19T22:38:48.948Z,7.97
2022-10-19T22:41:15.307Z,9.00
2022-10-19T22:43:41.761Z,9.18
2022-10-19T22:46:08.254Z,8.15
2022-10-19T22:48:34.618Z,8.52
2022-10-19T22:51:01.022Z,7.93
2022-10-19T22:53:27.473Z,8.85
2022-10-19T22:55:53.895Z,9.13
2022-10-19T22:58:20.285Z,8.63
2022-10-19T23:01:00.566Z,8.90
2022-10-19T23:03:26.956Z,8.23
2022-10-19T23:05:53.327Z,8.02
2022-10-19T23:08:19.707Z,7.93
2022-10-19T23:10:46.060Z,7.78
2022-10-19T23:13:12.448Z,8.50
2022-10-19T23:15:43.067Z,7.93
2022-10-19T23:18:10.572Z,8.73
2022-10-19T23:20:36.979Z,7.93
2022-10-19T23:23:03.479Z,8.15
2022-10-19T23:25:29.842Z,7.25
2022-10-19T23:27:56.203Z,7.28
2022-10-19T23:30:22.657Z,7.75
2022-10-19T23:32:49.085Z,7.75
2022-10-19T23:35:15.506Z,7.50
2022-10-19T23:37:41.880Z,7.68
2022-10-19T23:40:08.602Z,7.45
2022-10-19T23:42:34.942Z,7.85
2022-10-19T23:45:01.298Z,7.90
2022-10-19T23:47:27.819Z,7.15
2022-10-19T23:49:54.194Z,7.47
2022-10-19T23:52:20.547Z,7.72
2022-10-19T23:54:46.922Z,7.55
2022-10-19T23:57:13.353Z,7.32
2022-10-19T23:59:39.767Z,7.40
